Time;durP1;ratioP1;P1;durP2;ratioP2;P2;SDS_P1;SDS_P2;PMS_P1;PMS_P2;Temp;Humidity;BMP_temperature;BMP_pressure;BME280_temperature;BME280_humidity;BME280_pressure;Samples;Min_cycle;Max_cycle;Signal;HPM_P1;HPM_P2
2021/06/13 00:01:05;;;;;;;11.68;2.78;;;;;;;11.70;70.66;101910.50;4979343;28;20041;-85
2021/06/13 00:03:30;;;;;;;10.07;2.85;;;;;;;11.78;70.19;101912.84;4981997;28;20034;-85
2021/06/13 00:05:56;;;;;;;9.30;3.10;;;;;;;11.74;70.07;101914.34;4979992;28;20384;-85
2021/06/13 00:08:21;;;;;;;11.70;3.20;;;;;;;11.70;70.19;101905.13;4984988;28;20041;-85
2021/06/13 00:10:47;;;;;;;6.75;2.75;;;;;;;11.72;70.39;101911.06;4978747;28;20040;-85
2021/06/13 00:13:12;;;;;;;8.10;2.60;;;;;;;11.67;70.27;101913.59;4980944;28;20030;-85
2021/06/13 00:15:38;;;;;;;9.35;3.08;;;;;;;11.66;70.02;101911.97;4981200;28;20034;-85
2021/06/13 00:18:04;;;;;;;8.93;3.53;;;;;;;11.70;70.27;101915.84;4995037;28;20026;-85
2021/06/13 00:20:29;;;;;;;9.55;3.17;;;;;;;11.65;70.61;101915.69;4977074;28;20282;-85
2021/06/13 00:22:55;;;;;;;13.95;3.05;;;;;;;11.60;70.78;101919.06;4980901;28;20044;-86
2021/06/13 00:25:21;;;;;;;6.13;2.97;;;;;;;11.67;70.45;101919.81;4983396;28;20022;-85
2021/06/13 00:27:47;;;;;;;6.82;3.10;;;;;;;11.62;70.75;101916.16;4980530;28;20125;-85
2021/06/13 00:30:13;;;;;;;12.85;3.33;;;;;;;11.54;71.40;101919.97;4979890;28;20148;-85
2021/06/13 00:32:39;;;;;;;7.13;2.95;;;;;;;11.48;71.47;101923.53;4994241;28;20053;-85
2021/06/13 00:35:05;;;;;;;10.20;3.15;;;;;;;11.44;71.62;101915.13;4979801;28;20114;-85
2021/06/13 00:37:32;;;;;;;8.77;2.72;;;;;;;11.41;71.77;101918.28;4975872;28;20096;-85
2021/06/13 00:39:58;;;;;;;12.63;2.78;;;;;;;11.39;71.67;101919.53;4982636;28;20122;-84
2021/06/13 00:42:23;;;;;;;7.22;3.08;;;;;;;11.34;72.26;101919.41;4993477;28;20113;-85
2021/06/13 00:44:49;;;;;;;6.32;2.53;;;;;;;11.34;71.99;101922.09;4976612;28;20036;-85
2021/06/13 00:47:15;;;;;;;9.25;2.72;;;;;;;11.36;71.92;101930.72;4992944;28;20022;-85
2021/06/13 00:49:41;;;;;;;11.93;2.90;;;;;;;11.39;71.76;101924.91;4979666;28;20029;-85
2021/06/13 00:52:07;;;;;;;11.50;3.15;;;;;;;11.41;71.89;101925.50;4981835;28;20862;-85
2021/06/13 00:54:33;;;;;;;8.73;3.08;;;;;;;11.40;71.96;101929.22;4977903;28;20087;-85
2021/06/13 00:56:58;;;;;;;8.95;2.85;;;;;;;11.46;71.42;101928.31;4994243;28;20034;-84
2021/06/13 00:59:24;;;;;;;6.72;2.80;;;;;;;11.42;71.49;101932.50;4991584;28;20060;-85
2021/06/13 01:01:49;;;;;;;9.43;3.20;;;;;;;11.37;71.93;101929.69;4976133;28;20046;-85
2021/06/13 01:04:15;;;;;;;7.70;2.80;;;;;;;11.30;72.13;101931.59;4978949;28;20416;-85
2021/06/13 01:06:50;;;;;;;10.63;3.28;;;;;;;11.33;71.90;101928.50;4980320;28;20037;-85
2021/06/13 01:09:18;;;;;;;7.53;2.63;;;;;;;11.25;72.25;101937.66;4978101;28;20455;-85
2021/06/13 01:11:55;;;;;;;10.98;3.33;;;;;;;11.22;72.28;101932.72;4992146;28;20052;-85
2021/06/13 01:14:58;;;;;;;8.30;2.78;;;;;;;11.36;71.74;101938.78;4998725;28;20056;-85
2021/06/13 01:17:42;;;;;;;6.63;2.22;;;;;;;11.40;71.29;101940.78;4978425;28;20109;-85
2021/06/13 01:20:24;;;;;;;6.97;2.92;;;;;;;11.36;71.41;101944.16;4984796;28;20388;-85
2021/06/13 01:23:21;;;;;;;13.43;3.30;;;;;;;11.45;70.80;101942.78;4982208;28;20045;-85
2021/06/13 01:26:30;;;;;;;10.98;2.78;;;;;;;11.43;70.90;101950.25;4976725;28;20441;-85
2021/06/13 01:29:00;;;;;;;8.60;2.80;;;;;;;11.52;70.58;101950.78;4992890;28;20034;-85
2021/06/13 01:31:38;;;;;;;4.43;1.95;;;;;;;11.43;70.87;101939.50;4994532;28;20464;-85
2021/06/13 01:34:10;;;;;;;9.75;2.50;;;;;;;11.43;70.42;101940.34;4995258;28;20451;-85
2021/06/13 01:36:37;;;;;;;10.57;2.55;;;;;;;11.39;70.36;101938.31;4978987;28;20038;-85
2021/06/13 01:39:13;;;;;;;9.60;2.83;;;;;;;11.22;71.37;101943.47;4980201;28;20037;-84
2021/06/13 01:41:40;;;;;;;8.90;2.50;;;;;;;11.29;71.01;101935.34;4981088;28;20117;-85
2021/06/13 01:44:07;;;;;;;8.60;2.78;;;;;;;11.19;71.58;101944.75;4981400;28;20022;-85
2021/06/13 01:46:35;;;;;;;10.70;2.75;;;;;;;11.03;71.87;101944.50;4980562;28;20041;-85
2021/06/13 01:49:01;;;;;;;6.40;2.40;;;;;;;11.01;71.78;101949.25;4985648;28;20037;-85
2021/06/13 01:51:27;;;;;;;6.55;2.08;;;;;;;10.92;72.22;101954.06;4983688;28;20034;-85
2021/06/13 01:53:54;;;;;;;8.38;2.97;;;;;;;10.94;71.87;101954.66;4979665;28;20032;-85
2021/06/13 01:56:21;;;;;;;8.63;2.78;;;;;;;10.81;72.62;101961.00;4984598;28;20038;-85
2021/06/13 01:58:49;;;;;;;9.43;3.15;;;;;;;10.71;72.73;101947.25;4981881;28;20102;-85
2021/06/13 02:01:17;;;;;;;9.48;3.17;;;;;;;10.77;72.40;101956.28;4984819;28;20034;-85
2021/06/13 02:03:47;;;;;;;6.38;2.50;;;;;;;10.71;72.65;101957.97;4986028;28;20030;-85
2021/06/13 02:06:13;;;;;;;7.70;2.60;;;;;;;10.64;72.94;101967.94;4982582;28;20403;-85
2021/06/13 02:08:40;;;;;;;9.32;2.33;;;;;;;10.65;72.94;101966.09;4985905;28;20411;-85
2021/06/13 02:11:09;;;;;;;9.88;2.60;;;;;;;10.63;72.96;101966.31;4979814;28;20030;-85
2021/06/13 02:13:37;;;;;;;11.75;2.60;;;;;;;10.55;73.26;101971.91;4984504;28;20034;-85
2021/06/13 02:16:05;;;;;;;6.30;2.38;;;;;;;10.51;73.50;101974.22;4978716;28;20026;-85
2021/06/13 02:18:32;;;;;;;9.18;2.75;;;;;;;10.55;73.47;101980.78;4984308;28;20035;-83
2021/06/13 02:21:02;;;;;;;9.40;2.78;;;;;;;10.45;73.94;101976.97;5007874;28;20543;-84
2021/06/13 02:23:29;;;;;;;6.90;2.05;;;;;;;10.50;73.67;101977.94;5007048;28;20092;-83
2021/06/13 02:25:55;;;;;;;5.65;1.70;;;;;;;10.60;73.22;101977.47;5003316;28;20034;-84
2021/06/13 02:28:23;;;;;;;9.25;2.42;;;;;;;10.66;73.16;101989.16;4995803;28;20022;-84
2021/06/13 02:30:51;;;;;;;7.78;2.50;;;;;;;10.70;73.04;101987.69;4996738;28;20037;-86
2021/06/13 02:33:19;;;;;;;7.95;2.47;;;;;;;10.70;73.02;101988.50;5003084;28;20030;-86
2021/06/13 02:35:52;;;;;;;9.88;2.50;;;;;;;10.76;72.96;101986.81;4993679;28;20022;-85
2021/06/13 02:38:20;;;;;;;8.23;2.30;;;;;;;10.85;72.45;101997.03;5008705;28;20040;-85
2021/06/13 02:40:47;;;;;;;6.57;2.40;;;;;;;10.82;72.60;101996.66;4990284;28;20384;-86
2021/06/13 02:43:12;;;;;;;12.00;2.88;;;;;;;10.80;72.98;101998.75;5007618;28;20117;-85
2021/06/13 02:45:38;;;;;;;7.80;2.38;;;;;;;10.83;72.83;101996.44;4991388;28;20113;-85
2021/06/13 02:48:05;;;;;;;7.43;2.47;;;;;;;10.86;72.60;102004.03;5000176;28;20049;-86
2021/06/13 02:50:31;;;;;;;7.53;2.88;;;;;;;10.91;72.56;102006.06;4995870;28;20030;-86
2021/06/13 02:53:25;;;;;;;11.68;2.60;;;;;;;10.86;73.08;102008.59;4994641;28;20018;-86
2021/06/13 02:56:13;;;;;;;8.05;2.05;;;;;;;10.86;72.99;102008.59;4989052;28;20029;-86
2021/06/13 02:58:47;;;;;;;11.10;3.17;;;;;;;10.88;73.23;102012.69;5006488;28;20028;-86
2021/06/13 03:01:22;;;;;;;11.60;2.20;;;;;;;10.90;72.85;102015.97;5005411;28;20531;-86
2021/06/13 03:03:50;;;;;;;6.43;2.78;;;;;;;10.97;72.65;102025.84;4991463;28;20030;-84
2021/06/13 03:06:19;;;;;;;7.57;2.97;;;;;;;10.85;73.22;102023.03;4995992;28;20049;-86
2021/06/13 03:08:47;;;;;;;12.25;3.45;;;;;;;10.85;73.18;102025.72;4995464;28;20037;-86
2021/06/13 03:11:14;;;;;;;9.23;2.55;;;;;;;10.75;73.85;102028.06;5007495;28;20029;-85
2021/06/13 03:13:42;;;;;;;9.75;2.63;;;;;;;10.86;73.28;102024.69;5010596;28;20026;-86
2021/06/13 03:16:09;;;;;;;11.15;2.75;;;;;;;10.77;73.64;102031.34;5008246;28;20026;-86
2021/06/13 03:18:35;;;;;;;8.77;2.63;;;;;;;10.75;73.76;102033.41;4992466;28;20030;-87
2021/06/13 03:21:01;;;;;;;8.15;2.15;;;;;;;10.78;73.32;102033.81;4997506;28;20025;-85
2021/06/13 03:23:30;;;;;;;12.10;2.70;;;;;;;10.81;73.49;102046.78;4993814;28;20080;-86
2021/06/13 03:26:00;;;;;;;7.75;2.72;;;;;;;10.78;73.29;102044.53;4991001;28;20033;-84
2021/06/13 03:28:27;;;;;;;10.10;2.72;;;;;;;10.66;74.06;102045.47;5006494;28;20018;-85
2021/06/13 03:30:57;;;;;;;12.05;2.60;;;;;;;10.63;74.41;102045.91;4993255;28;20061;-85
2021/06/13 03:33:24;;;;;;;9.57;2.58;;;;;;;10.74;73.40;102048.69;4986579;28;20251;-85
2021/06/13 03:35:53;;;;;;;9.88;2.22;;;;;;;10.73;73.87;102051.56;4994429;28;20029;-85
2021/06/13 03:38:19;;;;;;;17.33;3.55;;;;;;;10.84;73.36;102056.25;5004159;28;20026;-85
2021/06/13 03:40:46;;;;;;;11.93;3.00;;;;;;;10.92;73.31;102060.50;4984381;28;20026;-84
2021/06/13 03:43:13;;;;;;;8.82;2.88;;;;;;;10.96;73.24;102062.56;5007252;28;20062;-86
2021/06/13 03:45:39;;;;;;;8.90;2.60;;;;;;;11.04;72.69;102069.50;4984279;28;20030;-86
2021/06/13 03:48:06;;;;;;;7.70;2.55;;;;;;;11.16;72.25;102068.59;4989292;28;20107;-85
2021/06/13 03:50:33;;;;;;;12.48;2.67;;;;;;;11.20;72.25;102071.63;5008188;28;20141;-86
2021/06/13 03:53:01;;;;;;;8.35;2.13;;;;;;;11.16;72.49;102076.63;4992551;28;20101;-85
2021/06/13 03:55:27;;;;;;;6.55;2.25;;;;;;;11.29;72.43;102078.34;4991236;28;20029;-85
2021/06/13 03:57:54;;;;;;;7.90;2.40;;;;;;;11.33;72.00;102074.22;5006704;28;20526;-85
2021/06/13 04:00:20;;;;;;;12.93;2.40;;;;;;;11.36;72.09;102084.50;5005978;28;20435;-86
2021/06/13 04:02:48;;;;;;;8.48;2.13;;;;;;;11.35;72.37;102088.22;4992967;28;20125;-85
2021/06/13 04:05:15;;;;;;;7.20;2.15;;;;;;;11.35;71.80;102088.22;4988473;28;20361;-85
2021/06/13 04:07:42;;;;;;;11.20;2.20;;;;;;;11.49;71.54;102095.13;5004331;28;20113;-85
2021/06/13 04:10:08;;;;;;;11.13;2.03;;;;;;;11.54;71.51;102091.75;4993077;28;20053;-86
2021/06/13 04:12:36;;;;;;;8.35;1.83;;;;;;;11.55;71.51;102092.59;4990810;28;20026;-86
2021/06/13 04:15:02;;;;;;;9.48;2.15;;;;;;;11.67;71.50;102090.78;4990190;28;20026;-85
2021/06/13 04:17:28;;;;;;;9.60;3.08;;;;;;;11.79;70.44;102089.88;4989761;28;20090;-86
2021/06/13 04:19:54;;;;;;;12.13;2.50;;;;;;;11.82;70.69;102099.34;4991756;28;20809;-87
2021/06/13 04:22:21;;;;;;;8.85;2.25;;;;;;;11.97;70.55;102102.47;5010105;28;20108;-86
2021/06/13 04:24:49;;;;;;;14.13;2.30;;;;;;;12.01;69.92;102097.47;4989607;28;20033;-86
2021/06/13 04:27:19;;;;;;;8.77;2.25;;;;;;;12.09;69.54;102099.88;5003401;28;20025;-86
2021/06/13 04:29:45;;;;;;;7.22;1.70;;;;;;;12.07;69.55;102105.47;4987072;28;20030;-86
2021/06/13 04:32:11;;;;;;;9.07;2.15;;;;;;;12.09;70.07;102111.44;4991433;28;20081;-86
2021/06/13 04:34:38;;;;;;;11.32;2.25;;;;;;;12.02;69.73;102099.94;4991778;28;20655;-86
2021/06/13 04:37:05;;;;;;;10.80;2.28;;;;;;;11.99;70.22;102108.44;4990261;28;20030;-87
2021/06/13 04:39:30;;;;;;;7.13;1.90;;;;;;;12.07;70.37;102113.53;5002931;28;20038;-85
2021/06/13 04:41:56;;;;;;;11.90;2.85;;;;;;;12.15;69.93;102111.56;4994013;28;20508;-86
2021/06/13 04:44:22;;;;;;;14.27;2.53;;;;;;;12.04;70.47;102113.16;4989856;28;20121;-87
2021/06/13 04:46:47;;;;;;;11.70;2.60;;;;;;;12.19;70.00;102121.63;5002906;28;20026;-85
2021/06/13 04:49:13;;;;;;;7.35;2.08;;;;;;;12.45;69.04;102123.19;5010608;28;20049;-86
2021/06/13 04:51:41;;;;;;;7.10;1.92;;;;;;;12.53;68.56;102119.34;5006225;28;20026;-85
2021/06/13 04:54:20;;;;;;;10.88;2.30;;;;;;;12.70;67.98;102128.41;4994382;28;20022;-85
2021/06/13 04:57:12;;;;;;;7.90;2.22;;;;;;;12.76;68.13;102132.91;4984231;28;20026;-86
2021/06/13 04:59:37;;;;;;;6.78;1.90;;;;;;;12.86;67.08;102125.09;4986888;28;20029;-86
2021/06/13 05:02:03;;;;;;;5.65;2.00;;;;;;;12.98;66.88;102127.81;4991008;28;20040;-86
2021/06/13 05:04:29;;;;;;;5.22;1.92;;;;;;;13.10;66.69;102125.13;4993391;28;20633;-86
2021/06/13 05:06:56;;;;;;;7.15;1.92;;;;;;;13.17;65.38;102126.69;4989836;28;20065;-86
2021/06/13 05:09:21;;;;;;;5.40;1.40;;;;;;;13.17;65.95;102133.94;5007643;28;20022;-85
2021/06/13 05:11:47;;;;;;;5.47;1.70;;;;;;;13.02;66.29;102139.75;4992238;28;20045;-86
2021/06/13 05:14:12;;;;;;;9.70;2.75;;;;;;;13.07;65.78;102139.88;5002043;28;20105;-85
2021/06/13 05:16:40;;;;;;;4.10;1.80;;;;;;;13.13;65.83;102143.53;5011768;28;20026;-86
2021/06/13 05:19:09;;;;;;;10.48;2.22;;;;;;;12.99;65.99;102145.59;4982592;28;20026;-85
2021/06/13 05:21:35;;;;;;;5.72;1.83;;;;;;;13.02;65.19;102156.72;4992662;28;20126;-86
2021/06/13 05:24:01;;;;;;;6.75;1.45;;;;;;;13.07;65.12;102147.13;4990255;28;20482;-85
2021/06/13 05:26:30;;;;;;;8.13;1.85;;;;;;;13.18;64.74;102152.56;4985231;28;20045;-85
2021/06/13 05:28:57;;;;;;;5.38;1.90;;;;;;;13.15;64.27;102157.56;4988758;28;20022;-84
2021/06/13 05:31:23;;;;;;;12.52;2.40;;;;;;;13.27;64.29;102158.44;4990923;28;20029;-85
2021/06/13 05:33:49;;;;;;;10.50;1.77;;;;;;;13.56;63.33;102162.09;5006672;28;20395;-86
2021/06/13 05:36:14;;;;;;;4.13;1.55;;;;;;;13.86;63.06;102159.31;4992831;28;20472;-85
2021/06/13 05:38:43;;;;;;;6.13;1.52;;;;;;;13.91;62.27;102148.63;4995925;28;20033;-85
2021/06/13 05:41:09;;;;;;;11.43;2.30;;;;;;;13.78;61.72;102156.94;4988569;28;20038;-86
2021/06/13 05:43:35;;;;;;;6.05;2.03;;;;;;;13.71;61.82;102161.66;4992814;28;20118;-86
2021/06/13 05:46:02;;;;;;;11.60;1.63;;;;;;;13.78;61.50;102154.25;4994341;28;20108;-85
2021/06/13 05:48:28;;;;;;;8.30;1.67;;;;;;;13.93;60.89;102154.59;4989168;28;20484;-84
2021/06/13 05:50:54;;;;;;;5.22;1.50;;;;;;;14.06;60.09;102164.31;4992478;28;20120;-85
2021/06/13 05:53:20;;;;;;;8.93;1.83;;;;;;;14.09;59.58;102161.97;4992281;28;20061;-84
2021/06/13 05:55:45;;;;;;;7.03;1.83;;;;;;;14.46;58.87;102172.47;4994786;28;20120;-84
2021/06/13 05:58:11;;;;;;;5.45;1.33;;;;;;;14.48;59.14;102173.03;4988606;28;20022;-86
2021/06/13 06:00:38;;;;;;;6.00;1.52;;;;;;;14.58;58.75;102183.22;4989698;28;20031;-85
2021/06/13 06:03:05;;;;;;;10.55;1.85;;;;;;;14.57;59.06;102185.09;4990633;28;20046;-86
2021/06/13 06:05:31;;;;;;;9.07;1.95;;;;;;;14.60;58.36;102186.50;5003168;28;20026;-87
2021/06/13 06:07:57;;;;;;;4.90;1.25;;;;;;;14.60;58.54;102192.69;4985643;28;20033;-85
2021/06/13 06:10:24;;;;;;;8.63;1.38;;;;;;;14.24;58.92;102187.59;5006198;28;20017;-84
2021/06/13 06:12:52;;;;;;;12.32;1.73;;;;;;;14.18;59.44;102189.34;5000135;28;20049;-85
2021/06/13 06:15:19;;;;;;;6.45;1.58;;;;;;;14.63;58.46;102205.72;4990822;28;20049;-86
2021/06/13 06:17:46;;;;;;;8.15;1.67;;;;;;;14.97;58.14;102195.03;4993019;28;20030;-85
2021/06/13 06:20:14;;;;;;;5.43;1.35;;;;;;;14.80;57.61;102203.88;5007302;28;20022;-84
2021/06/13 06:22:39;;;;;;;3.13;1.17;;;;;;;14.38;58.32;102206.00;4992294;28;20116;-87
2021/06/13 06:25:06;;;;;;;6.15;1.60;;;;;;;14.40;59.18;102203.06;5002746;28;20114;-85
2021/06/13 06:27:32;;;;;;;9.93;1.50;;;;;;;14.56;58.74;102204.22;5005434;28;20026;-86
2021/06/13 06:29:57;;;;;;;3.53;1.60;;;;;;;14.62;59.06;102201.38;4993058;28;20026;-84
2021/06/13 06:32:23;;;;;;;5.25;1.38;;;;;;;14.65;59.26;102208.16;4989056;28;20125;-86
2021/06/13 06:34:49;;;;;;;6.20;1.60;;;;;;;14.60;59.21;102202.69;4993926;28;20030;-85
2021/06/13 06:37:14;;;;;;;5.53;1.67;;;;;;;14.62;59.24;102211.34;4994714;28;20070;-86
2021/06/13 06:39:40;;;;;;;6.43;2.00;;;;;;;14.28;60.61;102216.53;5008224;28;20018;-86
2021/06/13 06:42:05;;;;;;;4.22;1.90;;;;;;;14.08;61.34;102227.69;5008126;28;20041;-85
2021/06/13 06:44:31;;;;;;;7.38;1.70;;;;;;;14.18;61.26;102217.16;5006800;28;20030;-86
2021/06/13 06:47:01;;;;;;;7.82;1.98;;;;;;;13.89;62.34;102220.78;4994280;28;20090;-84
2021/06/13 06:49:30;;;;;;;8.88;1.80;;;;;;;13.93;62.25;102224.66;4995890;28;20033;-86
2021/06/13 06:51:57;;;;;;;6.15;1.77;;;;;;;13.95;62.58;102227.09;5008012;28;20075;-84
2021/06/13 06:54:26;;;;;;;6.07;1.65;;;;;;;13.72;62.70;102230.63;4990120;28;20037;-86
2021/06/13 06:56:51;;;;;;;5.00;1.55;;;;;;;13.91;62.57;102235.66;4995981;28;20030;-85
2021/06/13 06:59:17;;;;;;;11.32;1.92;;;;;;;13.90;62.62;102241.28;4987789;28;20037;-88
2021/06/13 07:01:43;;;;;;;6.60;2.00;;;;;;;14.01;62.57;102237.78;4995330;28;20105;-87
2021/06/13 07:04:19;;;;;;;6.13;1.65;;;;;;;13.90;62.84;102242.13;4997563;28;20032;-86
2021/06/13 07:06:44;;;;;;;8.27;1.70;;;;;;;13.98;62.69;102246.31;4990186;28;20061;-86
2021/06/13 07:09:10;;;;;;;6.95;1.75;;;;;;;14.03;61.79;102245.63;5010873;28;20048;-86
2021/06/13 07:11:43;;;;;;;4.20;1.52;;;;;;;14.26;61.78;102253.72;4995288;28;20422;-86
2021/06/13 07:14:08;;;;;;;5.38;1.75;;;;;;;14.36;61.52;102240.47;4994557;28;20061;-85
2021/06/13 07:16:36;;;;;;;8.82;1.88;;;;;;;14.38;61.53;102243.75;5006590;28;20065;-85
2021/06/13 07:19:01;;;;;;;7.45;1.83;;;;;;;14.23;61.04;102251.50;4995207;28;20026;-84
2021/06/13 07:21:27;;;;;;;5.50;1.75;;;;;;;14.13;60.45;102254.75;4987737;28;20774;-85
2021/06/13 07:23:52;;;;;;;7.55;1.95;;;;;;;14.10;60.92;102259.81;4991371;28;20121;-86
2021/06/13 07:26:18;;;;;;;6.00;2.85;;;;;;;14.12;60.67;102252.31;5010479;28;20101;-87
2021/06/13 07:28:56;;;;;;;13.80;3.50;;;;;;;14.21;60.25;102262.50;4992349;28;20030;-87
2021/06/13 07:31:22;;;;;;;4.00;2.40;;;;;;;14.02;59.98;102269.06;4995633;28;20084;-86
2021/06/13 07:33:48;;;;;;;7.18;1.65;;;;;;;14.02;60.49;102266.38;4993336;28;20038;-85
2021/06/13 07:36:13;;;;;;;9.07;1.63;;;;;;;14.18;60.81;102270.22;4984941;28;21408;-83
2021/06/13 07:38:39;;;;;;;10.53;1.70;;;;;;;14.46;60.30;102267.66;4988429;28;20405;-85
2021/06/13 07:41:05;;;;;;;5.88;1.45;;;;;;;14.35;59.72;102273.03;4982732;28;20097;-84
2021/06/13 07:43:30;;;;;;;5.95;1.55;;;;;;;14.63;59.49;102262.34;4987039;28;20042;-85
2021/06/13 07:45:56;;;;;;;5.97;1.67;;;;;;;14.58;59.18;102269.53;4991790;28;20030;-88
2021/06/13 07:48:26;;;;;;;8.02;1.50;;;;;;;14.43;57.88;102284.31;4989300;28;20026;-88
2021/06/13 07:50:56;;;;;;;3.42;1.40;;;;;;;14.27;59.35;102285.00;4989146;28;20058;-85
2021/06/13 07:53:22;;;;;;;7.57;1.80;;;;;;;14.47;59.23;102288.19;4985984;28;20161;-85
2021/06/13 07:55:47;;;;;;;5.50;1.67;;;;;;;14.52;58.90;102295.56;4990432;28;20454;-85
2021/06/13 07:58:13;;;;;;;6.70;1.70;;;;;;;14.38;58.32;102294.16;4988883;28;20038;-84
2021/06/13 08:00:40;;;;;;;4.97;1.70;;;;;;;14.44;57.67;102290.53;4993321;28;20259;-86
2021/06/13 08:03:06;;;;;;;4.25;1.70;;;;;;;14.47;57.96;102295.44;4988469;28;20034;-83
2021/06/13 08:05:32;;;;;;;8.90;1.65;;;;;;;14.41;58.53;102299.06;4991641;28;20034;-86
2021/06/13 08:08:07;;;;;;;9.43;1.58;;;;;;;14.57;58.09;102306.47;5009425;28;20431;-85
2021/06/13 08:10:34;;;;;;;7.70;1.38;;;;;;;14.67;58.31;102303.97;4994179;28;20151;-86
2021/06/13 08:13:00;;;;;;;5.97;1.55;;;;;;;14.98;57.62;102310.00;4992865;28;20028;-85
2021/06/13 08:15:26;;;;;;;5.32;1.38;;;;;;;15.08;56.79;102304.78;4993920;28;20033;-85
2021/06/13 08:17:57;;;;;;;7.15;1.80;;;;;;;15.25;56.22;102308.38;4985978;28;20093;-87
2021/06/13 08:20:23;;;;;;;6.70;1.52;;;;;;;15.10;56.05;102305.41;4991128;28;20407;-86
2021/06/13 08:22:51;;;;;;;5.50;1.55;;;;;;;15.31;55.89;102301.22;4992279;28;20025;-86
2021/06/13 08:25:17;;;;;;;7.88;2.53;;;;;;;15.40;56.01;102307.84;4989130;28;20019;-86
2021/06/13 08:27:43;;;;;;;7.13;1.67;;;;;;;15.42;55.56;102317.34;4996063;28;20040;-86
2021/06/13 08:30:11;;;;;;;9.60;2.00;;;;;;;15.62;55.69;102313.44;4991639;28;20026;-87
2021/06/13 08:32:39;;;;;;;7.25;1.70;;;;;;;15.98;55.06;102320.25;4983815;28;20498;-83
2021/06/13 08:35:06;;;;;;;4.85;1.48;;;;;;;16.04;54.57;102318.44;4985677;28;20045;-87
2021/06/13 08:37:33;;;;;;;6.47;1.48;;;;;;;15.79;52.31;102319.63;4999980;28;20030;-85
2021/06/13 08:39:58;;;;;;;8.48;1.48;;;;;;;15.78;53.05;102323.41;5002494;28;20015;-85
2021/06/13 08:42:24;;;;;;;8.23;1.70;;;;;;;15.72;52.34;102329.78;4985804;28;20033;-86
2021/06/13 08:44:53;;;;;;;3.38;1.40;;;;;;;15.45;52.04;102331.44;4990596;28;20114;-86
2021/06/13 08:47:22;;;;;;;7.82;1.45;;;;;;;15.69;51.99;102331.09;4985297;28;20026;-85
2021/06/13 08:49:48;;;;;;;10.40;1.60;;;;;;;16.10;52.29;102341.78;4986713;28;20026;-83
2021/06/13 08:52:14;;;;;;;6.18;1.50;;;;;;;16.15;51.32;102339.13;4990484;28;20403;-83
2021/06/13 08:54:41;;;;;;;4.88;1.60;;;;;;;16.29;50.53;102341.25;4990793;28;20028;-86
2021/06/13 08:57:10;;;;;;;7.95;1.92;;;;;;;16.35;50.45;102339.47;4992584;28;20022;-85
2021/06/13 08:59:39;;;;;;;5.22;1.20;;;;;;;16.40;50.56;102331.44;4993257;28;20113;-83
2021/06/13 09:02:06;;;;;;;9.05;2.10;;;;;;;16.48;49.85;102335.59;4985839;28;20393;-85
2021/06/13 09:04:33;;;;;;;8.85;1.85;;;;;;;16.53;50.36;102344.63;5007771;28;20030;-86
2021/06/13 09:06:59;;;;;;;9.13;1.90;;;;;;;16.57;50.27;102336.81;4991785;28;20050;-87
2021/06/13 09:09:26;;;;;;;8.07;1.77;;;;;;;16.53;50.03;102341.91;4986022;28;20100;-82
2021/06/13 09:12:03;;;;;;;7.20;1.67;;;;;;;16.57;48.95;102343.03;5004512;28;20117;-83
2021/06/13 09:14:51;;;;;;;3.83;1.60;;;;;;;16.43;49.03;102336.34;5004043;28;20164;-83
2021/06/13 09:17:24;;;;;;;6.97;1.85;;;;;;;16.78;48.63;102348.75;5001626;28;20022;-83
2021/06/13 09:20:20;;;;;;;8.23;1.77;;;;;;;17.28;47.87;102348.56;5000240;28;20031;-82
2021/06/13 09:23:17;;;;;;;9.65;1.70;;;;;;;17.82;46.44;102348.59;4972407;28;20069;-81
2021/06/13 09:25:44;;;;;;;8.65;2.00;;;;;;;17.47;45.93;102346.31;4977621;28;20037;-82
2021/06/13 09:28:13;;;;;;;5.65;1.75;;;;;;;17.75;44.97;102359.63;4997834;28;20058;-81
2021/06/13 09:30:43;;;;;;;3.70;1.50;;;;;;;18.03;45.40;102352.28;4979765;28;20629;-80
2021/06/13 09:33:15;;;;;;;4.72;1.40;;;;;;;18.07;44.72;102353.41;4981898;28;20068;-81
2021/06/13 09:35:44;;;;;;;5.55;1.27;;;;;;;18.21;44.07;102351.88;4972344;28;20034;-81
2021/06/13 09:38:33;;;;;;;4.40;1.55;;;;;;;18.34;43.36;102361.50;4983866;28;20026;-80
2021/06/13 09:41:02;;;;;;;6.18;1.83;;;;;;;17.98;43.68;102353.06;4996555;28;20060;-83
2021/06/13 09:43:35;;;;;;;5.78;1.80;;;;;;;18.05;44.14;102355.56;4979857;28;20029;-86
2021/06/13 09:46:12;;;;;;;4.28;1.52;;;;;;;18.31;44.50;102362.84;4982288;28;20052;-86
2021/06/13 09:48:39;;;;;;;4.97;1.30;;;;;;;18.89;41.84;102369.16;4981742;28;20562;-87
2021/06/13 09:51:11;;;;;;;2.53;1.30;;;;;;;18.95;42.31;102375.44;4983327;28;20030;-86
2021/06/13 09:53:44;;;;;;;12.07;1.80;;;;;;;19.13;41.79;102371.44;4981498;28;20037;-88
2021/06/13 09:56:09;;;;;;;5.88;1.50;;;;;;;18.10;42.32;102371.88;4983315;28;20053;-86
2021/06/13 09:58:45;;;;;;;4.55;1.58;;;;;;;18.71;42.39;102377.75;4992771;28;20087;-87
2021/06/13 10:01:13;;;;;;;4.57;1.35;;;;;;;18.95;41.08;102376.25;4977613;28;20496;-87
2021/06/13 10:03:39;;;;;;;3.42;1.60;;;;;;;18.98;41.78;102383.88;4978135;28;20091;-86
2021/06/13 10:06:08;;;;;;;2.88;1.42;;;;;;;18.91;41.60;102383.28;4978753;28;20042;-86
2021/06/13 10:08:35;;;;;;;6.57;1.58;;;;;;;18.62;42.41;102392.88;4985842;28;20034;-84
2021/06/13 10:11:02;;;;;;;8.10;1.80;;;;;;;18.60;42.40;102387.69;4985436;28;20029;-84
2021/06/13 10:13:46;;;;;;;2.65;1.55;;;;;;;18.63;43.42;102397.25;4989350;28;20029;-84
2021/06/13 10:16:45;;;;;;;7.22;1.67;;;;;;;18.57;43.96;102392.84;4985088;28;20191;-85
2021/06/13 10:19:12;;;;;;;2.95;1.40;;;;;;;18.05;45.42;102391.63;5003414;28;20026;-83
2021/06/13 10:21:44;;;;;;;7.55;1.80;;;;;;;17.12;47.29;102398.22;4984996;28;20033;-84
2021/06/13 10:24:22;;;;;;;5.65;1.77;;;;;;;17.02;48.13;102403.47;4988130;28;20029;-85
2021/06/13 10:26:54;;;;;;;3.50;1.20;;;;;;;17.31;47.96;102407.66;5001296;28;20419;-83
2021/06/13 10:29:22;;;;;;;6.40;1.67;;;;;;;17.44;47.09;102409.16;4983113;28;20018;-84
2021/06/13 10:31:51;;;;;;;4.43;1.83;;;;;;;16.76;48.29;102432.09;5005349;28;20637;-83
2021/06/13 10:34:18;;;;;;;6.65;1.90;;;;;;;17.29;48.01;102411.69;4986692;28;20617;-85
2021/06/13 10:36:45;;;;;;;5.93;1.85;;;;;;;17.06;48.59;102435.25;5007503;28;20029;-85
2021/06/13 10:39:14;;;;;;;6.95;1.60;;;;;;;16.84;48.66;102418.13;4986320;28;20594;-84
2021/06/13 10:41:41;;;;;;;5.63;2.08;;;;;;;16.84;48.79;102423.53;4981370;28;20140;-83
2021/06/13 10:44:12;;;;;;;7.50;2.00;;;;;;;17.24;48.35;102430.59;4983384;28;20029;-82
2021/06/13 10:46:41;;;;;;;4.50;2.83;;;;;;;16.90;48.12;102417.97;4998346;22;20049;-48
2021/06/13 10:49:28;;;;;;;3.55;1.75;;;;;;;16.88;49.08;102424.72;4994335;28;20121;-48
2021/06/13 10:52:10;;;;;;;5.40;1.70;;;;;;;17.49;48.09;102417.34;4999096;28;20083;-49
2021/06/13 10:54:56;;;;;;;7.65;1.63;;;;;;;17.25;48.06;102415.97;4989425;28;20515;-48
2021/06/13 10:57:22;;;;;;;6.28;2.13;;;;;;;17.27;48.38;102428.19;4976371;28;20539;-49
2021/06/13 10:59:52;;;;;;;5.05;1.60;;;;;;;17.24;48.63;102427.88;4989109;28;20018;-48
2021/06/13 11:02:23;;;;;;;6.00;1.73;;;;;;;17.22;49.32;102431.63;4996272;28;20523;-48
2021/06/13 11:05:03;;;;;;;8.15;2.00;;;;;;;17.28;49.49;102423.59;4993257;28;20026;-50
2021/06/13 11:10:06;;;;;;;5.88;1.92;;;;;;;17.00;50.24;102432.69;4991111;28;20304;-49
2021/06/13 11:13:03;;;;;;;5.97;1.85;;;;;;;17.37;48.86;102443.75;4992579;28;20407;-48
2021/06/13 11:15:41;;;;;;;8.38;1.80;;;;;;;17.81;47.13;102437.25;4993061;28;20040;-47
2021/06/13 11:18:13;;;;;;;6.88;1.70;;;;;;;17.61;47.70;102442.41;4994970;28;20550;-48
2021/06/13 11:20:53;;;;;;;6.10;2.00;;;;;;;17.87;47.44;102437.28;4992786;28;20032;-48
2021/06/13 11:23:21;;;;;;;8.15;2.08;;;;;;;18.51;46.54;102430.00;4995361;28;20044;-48
2021/06/13 11:25:48;;;;;;;9.05;1.70;;;;;;;18.88;45.35;102442.75;4993547;28;20555;-48
2021/06/13 11:28:22;;;;;;;11.13;2.20;;;;;;;18.21;45.86;102441.41;4999716;28;20153;-49
2021/06/13 11:30:52;;;;;;;3.35;1.33;;;;;;;17.83;46.08;102431.56;4993690;28;20026;-48
2021/06/13 11:33:34;;;;;;;6.40;1.88;;;;;;;17.48;47.29;102461.78;4992468;28;20103;-47
2021/06/13 11:36:04;;;;;;;6.70;1.73;;;;;;;17.17;48.47;102445.13;4989178;28;20026;-47